»·PEaware :: N123YN L88-KSBP

N123YN :: L88-KSBP

FLIGHT INFORMATION

Flight Status: Arrived
Operator: Privately registered:
United States
More flights under this callsign
Pilot: Yam N. (22972)
Aircraft: CESSNA 172 SKYHAWK
(C172)
More flights by this aircraft type
Origin: L88 New Cuyama
United States
Destination: KSBP San Luis Co Regl
United States
More flights between these airports :: More routes between these airports
Route:
File this flight plan on PilotEdge
Remarks:
Altitude:
(Current/Filed)
4,500ft
Speed:
(Current/Filed)
100kts
Departed: 12-Jan-19 12:43 PM
Arrived: 12-Jan-19 01:55 PM
Distance/Time
Traveled:
50nm/1:12
Distance/Time
To Go:
Arrived

Flight Plot

Page will automatically refresh every two minutes.


Map Options




Map Legend


Flown Route
Filed Route
Departure Airport
Arrival Airport
Navaid (VOR, NDB)
Fix

Horizontal Profiles

Position Reports

Time Latitude Longitude Heading Altitude Ground
Speed
12-Jan-19 12:26 34.943923 -119.690797 202 2149ft 0kts
12-Jan-19 12:28 34.943923 -119.690797 202 2149ft 0kts
12-Jan-19 12:29 34.943923 -119.690797 202 2149ft 0kts
12-Jan-19 12:30 34.943923 -119.690797 202 2149ft 0kts
12-Jan-19 12:31 34.943923 -119.690797 202 2149ft 0kts
12-Jan-19 12:32 34.943923 -119.690797 202 2149ft 0kts
12-Jan-19 12:33 34.943923 -119.690797 202 2149ft 0kts
12-Jan-19 12:34 34.943923 -119.690797 202 2149ft 0kts
12-Jan-19 12:35 34.943923 -119.690797 202 2149ft 0kts
12-Jan-19 12:36 34.943923 -119.690797 202 2149ft 0kts
12-Jan-19 12:37 34.943786 -119.690843 189 2149ft 4kts
12-Jan-19 12:38 34.942495 -119.690833 113 2154ft 0kts
12-Jan-19 12:39 34.941197 -119.688617 116 2159ft 13kts
12-Jan-19 12:40 34.939286 -119.683968 116 2185ft 16kts
12-Jan-19 12:41 34.937586 -119.679773 191 2207ft 3kts
12-Jan-19 12:42 34.937681 -119.680044 297 2205ft 0kts
12-Jan-19 12:43 34.943776 -119.694326 296 2484ft 77kts
12-Jan-19 12:44 34.959641 -119.714673 291 3009ft 91kts
12-Jan-19 12:45 34.968037 -119.738500 308 3529ft 93kts
12-Jan-19 13:10 34.943923 -119.690797 203 2149ft 0kts
12-Jan-19 13:11 34.943923 -119.690797 203 2149ft 0kts
12-Jan-19 13:12 34.943923 -119.690797 203 2149ft 0kts
12-Jan-19 13:13 34.943489 -119.691050 209 2149ft 0kts
12-Jan-19 13:14 34.943489 -119.691050 209 2149ft 0kts
12-Jan-19 13:15 34.943489 -119.691050 209 2149ft 0kts
12-Jan-19 13:16 34.943489 -119.691050 209 2149ft 0kts
12-Jan-19 13:17 34.943436 -119.691069 190 2149ft 1kts
12-Jan-19 13:18 34.942613 -119.691176 167 2152ft 1kts
12-Jan-19 13:19 34.940803 -119.687683 117 2163ft 23kts
12-Jan-19 13:20 34.938002 -119.680766 112 2202ft 21kts
12-Jan-19 13:21 34.937719 -119.680125 295 2205ft 0kts
12-Jan-19 13:22 34.941324 -119.688775 294 2260ft 85kts
12-Jan-19 13:23 34.950881 -119.713897 292 3067ft 81kts
12-Jan-19 13:24 34.959258 -119.739644 284 3778ft 80kts
12-Jan-19 13:25 34.966918 -119.765184 283 4431ft 83kts
12-Jan-19 13:26 34.971120 -119.796542 278 4499ft 98kts
12-Jan-19 13:27 34.979310 -119.828517 297 4498ft 101kts
12-Jan-19 13:28 34.993151 -119.858292 297 4498ft 101kts
12-Jan-19 13:29 35.007057 -119.888286 297 4497ft 101kts
12-Jan-19 13:30 35.020855 -119.918127 297 4497ft 101kts
12-Jan-19 13:31 35.034660 -119.948065 297 4497ft 101kts
12-Jan-19 13:32 35.048442 -119.978033 297 4497ft 101kts
12-Jan-19 13:33 35.062214 -120.008061 297 4497ft 101kts
12-Jan-19 13:34 35.075879 -120.038032 294 4497ft 101kts
12-Jan-19 13:35 35.083689 -120.070862 283 4497ft 100kts
12-Jan-19 13:36 35.089532 -120.104234 278 4497ft 100kts
12-Jan-19 13:37 35.094523 -120.137699 280 4497ft 100kts
12-Jan-19 13:38 35.099922 -120.171212 280 4497ft 100kts
12-Jan-19 13:39 35.109515 -120.203342 287 4497ft 100kts
12-Jan-19 13:40 35.117821 -120.235971 284 4497ft 100kts
12-Jan-19 13:41 35.125114 -120.268922 284 4497ft 100kts
12-Jan-19 13:42 35.132368 -120.301846 284 4497ft 100kts
12-Jan-19 13:43 35.139603 -120.334834 284 4497ft 100kts
12-Jan-19 13:44 35.147147 -120.367661 285 4497ft 100kts
12-Jan-19 13:45 35.155322 -120.400413 285 4497ft 100kts
12-Jan-19 13:46 35.163439 -120.433071 285 4396ft 100kts
12-Jan-19 13:47 35.171393 -120.465103 285 3828ft 100kts
12-Jan-19 13:48 35.179611 -120.498519 285 3149ft 103kts
12-Jan-19 13:49 35.188113 -120.531388 288 2553ft 97kts
12-Jan-19 13:50 35.197306 -120.562764 289 2036ft 96kts
12-Jan-19 13:51 35.209743 -120.592051 302 1372ft 97kts
12-Jan-19 13:52 35.222795 -120.615263 303 883ft 68kts
12-Jan-19 13:53 35.233443 -120.634151 301 224ft 60kts
12-Jan-19 13:54 35.237463 -120.639916 10 215ft 0kts
12-Jan-19 13:55 35.236915 -120.638399 126 215ft 10kts
12-Jan-19 13:56 35.238162 -120.636729 96 215ft 0kts
12-Jan-19 13:57 35.238162 -120.636729 96 215ft 0kts

Navigation Log

Ident Type
Flight plan parsing failed, navigation log unavailable